Time;durP1;ratioP1;P1;durP2;ratioP2;P2;SDS_P1;SDS_P2;PMS_P1;PMS_P2;Temp;Humidity;BMP_temperature;BMP_pressure;BME280_temperature;BME280_humidity;BME280_pressure;Samples;Min_cycle;Max_cycle;Signal;HPM_P1;HPM_P2
2022/05/23 00:00:20;;;;;;;3.52;1.00;;;;;;;14.80;48.36;100517.89;1738464;82;27456;-59
2022/05/23 00:02:49;;;;;;;2.92;0.80;;;;;;;14.79;48.41;100513.48;1736153;81;25785;-59
2022/05/23 00:05:16;;;;;;;7.80;1.17;;;;;;;14.76;48.63;100513.33;1729964;82;25846;-59
2022/05/23 00:07:47;;;;;;;4.67;0.82;;;;;;;14.75;48.72;100513.51;1735479;81;26419;-59
2022/05/23 00:10:18;;;;;;;1.62;0.90;;;;;;;14.74;48.82;100514.00;1734656;81;25753;-59
2022/05/23 00:12:45;;;;;;;10.38;0.90;;;;;;;14.74;48.71;100516.70;1734661;81;27456;-59
2022/05/23 00:15:13;;;;;;;3.80;0.90;;;;;;;14.75;48.76;100510.28;1735799;81;25758;-59
2022/05/23 00:17:41;;;;;;;5.92;1.07;;;;;;;14.77;49.07;100520.93;1734575;82;25805;-58
2022/05/23 00:20:11;;;;;;;0.82;0.70;;;;;;;14.71;49.11;100513.84;1728274;81;25819;-59
2022/05/23 00:22:38;;;;;;;2.55;1.05;;;;;;;14.67;49.31;100517.05;1734585;81;25754;-59
2022/05/23 00:25:09;;;;;;;5.37;1.50;;;;;;;14.67;49.22;100518.41;1734299;82;27558;-59
2022/05/23 00:27:39;;;;;;;7.28;1.25;;;;;;;14.70;49.16;100526.20;1735181;81;25678;-59
2022/05/23 00:30:21;;;;;;;2.10;1.05;;;;;;;14.60;49.14;100527.67;1728064;81;25778;-58
2022/05/23 00:35:35;;;;;;;6.22;1.05;;;;;;;14.24;49.38;100520.72;1730268;81;25775;-58
2022/05/23 00:38:02;;;;;;;7.83;1.30;;;;;;;14.20;49.42;100523.41;1726267;81;27450;-59
2022/05/23 00:40:40;;;;;;;3.87;1.10;;;;;;;14.17;49.75;100526.42;1718168;81;25798;-58
2022/05/23 00:43:19;;;;;;;5.67;1.10;;;;;;;14.14;49.73;100526.78;1709567;81;25740;-59
2022/05/23 00:45:54;;;;;;;4.00;1.17;;;;;;;14.15;49.82;100523.55;1703988;82;25740;-59
2022/05/23 00:48:26;;;;;;;3.45;1.10;;;;;;;14.18;49.63;100528.13;1729590;82;25812;-59
2022/05/23 00:50:57;;;;;;;4.10;1.35;;;;;;;14.19;49.97;100520.88;1720143;82;28402;-59
2022/05/23 00:53:31;;;;;;;5.05;1.62;;;;;;;14.22;49.65;100528.15;1720992;82;25757;-59
2022/05/23 00:55:59;;;;;;;4.67;1.50;;;;;;;14.27;49.82;100529.48;1727263;83;25490;-59
2022/05/23 00:58:31;;;;;;;4.62;1.70;;;;;;;14.27;49.79;100523.59;1725144;82;25765;-59
2022/05/23 01:01:04;;;;;;;2.58;2.00;;;;;;;14.24;50.07;100531.55;1728501;82;25729;-59
2022/05/23 01:03:31;;;;;;;6.15;1.77;;;;;;;14.21;50.06;100533.70;1721341;82;27453;-59
2022/05/23 01:05:58;;;;;;;7.25;1.67;;;;;;;14.14;50.21;100527.27;1719103;82;25866;-59
2022/05/23 01:08:26;;;;;;;5.78;1.75;;;;;;;14.04;50.43;100524.72;1725193;82;25751;-59
2022/05/23 01:10:54;;;;;;;5.40;1.57;;;;;;;13.96;50.46;100525.53;1719943;82;26312;-59
2022/05/23 01:13:21;;;;;;;8.83;1.60;;;;;;;13.97;50.48;100520.99;1722477;82;25518;-59
2022/05/23 01:15:50;;;;;;;3.02;1.35;;;;;;;13.99;50.66;100518.95;1724367;82;28224;-59
2022/05/23 01:18:17;;;;;;;4.05;1.60;;;;;;;14.07;50.31;100521.70;1722891;82;25946;-59
2022/05/23 01:20:45;;;;;;;2.15;1.47;;;;;;;14.07;50.22;100523.88;1724634;82;25769;-59
2022/05/23 01:23:29;;;;;;;3.50;1.70;;;;;;;14.04;50.28;100516.09;1724376;82;25748;-59
2022/05/23 01:26:14;;;;;;;4.47;1.25;;;;;;;14.00;50.05;100518.80;1722235;82;25872;-59
2022/05/23 01:28:43;;;;;;;8.20;1.62;;;;;;;14.00;50.23;100514.74;1718908;82;27492;-59
2022/05/23 01:31:12;;;;;;;3.87;1.37;;;;;;;13.97;49.95;100513.71;1727462;82;25801;-59
2022/05/23 01:33:40;;;;;;;10.75;1.62;;;;;;;14.05;49.81;100513.73;1705158;82;25757;-58
2022/05/23 01:36:14;;;;;;;3.80;1.10;;;;;;;14.13;49.67;100514.27;1715739;83;25787;-58
2022/05/23 01:38:42;;;;;;;2.33;1.43;;;;;;;14.20;49.48;100506.34;1722253;83;25698;-59
2022/05/23 01:41:17;;;;;;;8.40;1.35;;;;;;;14.25;49.35;100519.67;1720470;83;28410;-59
2022/05/23 01:43:46;;;;;;;3.60;1.85;;;;;;;14.29;49.31;100513.45;1704708;83;25549;-58
2022/05/23 01:46:27;;;;;;;13.30;1.42;;;;;;;14.28;49.15;100510.41;1723365;81;25794;-59
2022/05/23 01:49:12;;;;;;;2.15;1.35;;;;;;;14.28;49.26;100511.76;1718589;82;25703;-60
2022/05/23 01:51:39;;;;;;;6.15;1.17;;;;;;;14.27;49.13;100518.67;1698777;83;25804;-57
2022/05/23 01:54:06;;;;;;;6.20;1.45;;;;;;;14.28;49.28;100514.95;1725651;83;27330;-59
2022/05/23 01:56:33;;;;;;;3.72;1.82;;;;;;;14.24;49.33;100517.15;1716153;82;25810;-59
2022/05/23 02:01:47;;;;;;;3.50;1.27;;;;;;;14.09;49.46;100518.30;1722349;82;25650;-59
2022/05/23 02:04:15;;;;;;;8.68;1.50;;;;;;;14.07;49.39;100513.06;1724405;81;25699;-59
2022/05/23 02:06:43;;;;;;;4.78;1.70;;;;;;;14.01;49.70;100516.44;1718404;82;27637;-59
2022/05/23 02:09:27;;;;;;;9.60;1.70;;;;;;;14.05;49.62;100516.44;1718173;82;25749;-59
2022/05/23 02:12:13;;;;;;;7.10;2.35;;;;;;;14.07;49.77;100509.53;1725362;83;25691;-59
2022/05/23 02:14:40;;;;;;;5.60;1.72;;;;;;;14.07;50.04;100514.94;1725504;83;26498;-59
2022/05/23 02:17:11;;;;;;;4.80;1.75;;;;;;;13.93;50.14;100509.66;1723790;83;25826;-59
2022/05/23 02:19:39;;;;;;;4.40;1.50;;;;;;;13.81;50.70;100510.96;1725865;83;27498;-59
2022/05/23 02:22:10;;;;;;;4.90;2.08;;;;;;;13.67;50.86;100510.56;1724981;81;25711;-59
2022/05/23 02:24:37;;;;;;;11.10;1.62;;;;;;;13.59;51.13;100513.23;1725736;82;25753;-59
2022/05/23 02:27:06;;;;;;;6.97;1.92;;;;;;;13.51;51.38;100510.00;1725656;82;26640;-59
2022/05/23 02:29:35;;;;;;;3.80;2.02;;;;;;;13.50;51.37;100510.15;1718314;82;25752;-59
2022/05/23 02:32:04;;;;;;;8.05;1.85;;;;;;;13.52;51.35;100509.00;1726330;81;28430;-59
2022/05/23 02:34:31;;;;;;;4.62;1.62;;;;;;;13.56;51.40;100502.25;1699786;83;25865;-59
2022/05/23 02:36:59;;;;;;;5.85;2.30;;;;;;;13.66;51.12;100511.59;1722611;82;25862;-59
2022/05/23 02:39:46;;;;;;;9.58;1.57;;;;;;;13.72;51.03;100506.88;1729071;81;26249;-60
2022/05/23 02:42:13;;;;;;;5.92;1.80;;;;;;;13.78;50.83;100510.27;1739860;81;25829;-59
2022/05/23 02:44:40;;;;;;;2.30;1.70;;;;;;;13.86;50.78;100514.00;1755363;81;28385;-59
2022/05/23 02:47:09;;;;;;;3.98;2.30;;;;;;;13.92;50.57;100509.31;1735385;81;26023;-59
2022/05/23 02:49:37;;;;;;;5.65;1.95;;;;;;;13.98;50.60;100510.52;1724377;82;25858;-59
2022/05/23 02:52:06;;;;;;;4.95;1.47;;;;;;;14.05;50.48;100516.95;1693174;83;27613;-59
2022/05/23 02:54:35;;;;;;;9.00;2.10;;;;;;;14.12;50.51;100515.79;1721008;81;25909;-60
2022/05/23 02:57:06;;;;;;;5.72;1.95;;;;;;;14.17;50.55;100517.48;1727566;81;27490;-59
2022/05/23 02:59:33;;;;;;;7.47;1.80;;;;;;;14.07;50.85;100510.36;1728013;83;25805;-59
2022/05/23 03:04:48;;;;;;;7.25;2.00;;;;;;;13.85;51.48;100515.05;1716803;83;25846;-59
2022/05/23 03:07:16;;;;;;;2.83;1.72;;;;;;;13.76;51.82;100523.62;1721133;81;25941;-59
2022/05/23 03:09:45;;;;;;;3.22;2.00;;;;;;;13.68;52.18;100523.59;1720709;81;28304;-60
2022/05/23 03:12:14;;;;;;;9.78;2.30;;;;;;;13.59;52.52;100522.20;1723414;81;25699;-60
2022/05/23 03:14:41;;;;;;;6.42;2.90;;;;;;;13.51;52.58;100522.66;1725325;82;25922;-59
2022/05/23 03:17:08;;;;;;;8.98;3.40;;;;;;;13.49;52.76;100530.94;1721966;82;25716;-59
2022/05/23 03:19:38;;;;;;;8.93;3.83;;;;;;;13.46;53.03;100525.36;1721945;82;25902;-60
2022/05/23 03:27:42;;;;;;;8.35;4.35;;;;;;;13.42;53.24;100534.78;1721908;83;25653;-59
2022/05/23 03:30:17;;;;;;;7.50;3.00;;;;;;;13.39;53.47;100528.36;1725087;81;25735;-60
2022/05/23 03:32:46;;;;;;;11.78;4.00;;;;;;;13.37;53.64;100537.58;1732081;81;25758;-60
2022/05/23 03:35:13;;;;;;;14.55;4.65;;;;;;;13.32;54.10;100536.70;1701275;84;27497;-59
2022/05/23 03:37:40;;;;;;;7.17;4.10;;;;;;;13.30;54.37;100542.28;1735191;82;25895;-60
2022/05/23 03:40:11;;;;;;;5.75;3.62;;;;;;;13.29;54.27;100541.10;1735038;82;25699;-60
2022/05/23 03:42:40;;;;;;;12.63;3.50;;;;;;;13.29;54.51;100545.16;1718119;82;25786;-60
2022/05/23 03:45:10;;;;;;;9.93;4.12;;;;;;;13.31;54.38;100545.33;1706267;84;25753;-60
2022/05/23 03:47:46;;;;;;;6.70;3.20;;;;;;;13.46;54.39;100539.35;1731806;82;27721;-59
2022/05/23 03:50:15;;;;;;;8.63;3.27;;;;;;;13.56;53.98;100540.60;1723848;82;25659;-60
2022/05/23 03:52:42;;;;;;;11.50;3.02;;;;;;;13.59;53.86;100544.31;1701012;84;25720;-60
2022/05/23 03:55:10;;;;;;;12.55;3.37;;;;;;;13.67;54.00;100547.05;1722059;82;25718;-60
2022/05/23 03:57:37;;;;;;;5.30;3.45;;;;;;;13.73;53.85;100549.13;1718307;82;25932;-60
2022/05/23 04:00:09;;;;;;;7.58;3.02;;;;;;;13.68;53.68;100538.45;1723024;81;27304;-61
2022/05/23 04:02:37;;;;;;;9.20;3.77;;;;;;;13.66;54.12;100545.87;1714518;82;33367;-57
2022/05/23 04:05:07;;;;;;;10.32;2.95;;;;;;;13.58;54.07;100544.00;1711248;82;25785;-59
2022/05/23 04:07:52;;;;;;;6.22;2.80;;;;;;;13.53;54.10;100540.91;1724089;82;25782;-60
2022/05/23 04:10:20;;;;;;;5.92;2.90;;;;;;;13.56;54.38;100541.44;1708034;82;25708;-60
2022/05/23 04:12:47;;;;;;;13.95;5.67;;;;;;;13.55;54.12;100545.14;1716357;82;27490;-59
2022/05/23 04:15:15;;;;;;;8.58;3.83;;;;;;;13.63;54.45;100542.99;1705739;82;26662;-60
2022/05/23 04:17:42;;;;;;;9.00;4.28;;;;;;;13.75;54.08;100539.00;1706070;82;25752;-60
2022/05/23 04:20:11;;;;;;;6.40;2.65;;;;;;;13.84;54.17;100533.11;1712815;82;25905;-60
2022/05/23 04:22:43;;;;;;;8.18;2.83;;;;;;;13.84;53.90;100537.16;1716241;82;25711;-59
2022/05/23 04:25:13;;;;;;;18.52;5.58;;;;;;;13.86;54.01;100536.50;1718503;82;28146;-59
2022/05/23 04:27:39;;;;;;;13.15;4.40;;;;;;;13.93;54.04;100536.70;1709360;82;25855;-59
2022/05/23 04:30:10;;;;;;;7.67;5.42;;;;;;;14.03;54.03;100534.67;1700754;84;25807;-59
2022/05/23 04:35:25;;;;;;;6.92;3.85;;;;;;;14.24;53.50;100534.25;1701507;82;25694;-59
2022/05/23 04:37:54;;;;;;;7.83;2.87;;;;;;;14.34;53.44;100540.02;1703090;83;28107;-59
2022/05/23 04:40:27;;;;;;;14.25;3.17;;;;;;;14.39;53.20;100537.12;1702294;84;25770;-59
2022/05/23 04:42:54;;;;;;;3.90;2.52;;;;;;;14.51;53.04;100536.31;1704761;84;25675;-59
2022/05/23 04:45:23;;;;;;;5.87;3.00;;;;;;;14.61;52.88;100534.78;1709091;82;25812;-59
2022/05/23 04:50:44;;;;;;;11.10;2.70;;;;;;;14.71;52.48;100539.56;1729570;81;27471;-59
2022/05/23 04:53:11;;;;;;;9.00;2.22;;;;;;;14.74;52.21;100543.78;1730560;82;25831;-59
2022/05/23 04:55:41;;;;;;;6.80;2.20;;;;;;;14.83;52.21;100533.81;1725481;81;25963;-59
2022/05/23 04:58:10;;;;;;;13.68;2.45;;;;;;;14.91;51.93;100542.42;1729681;82;25837;-59
2022/05/23 05:00:39;;;;;;;7.83;2.30;;;;;;;14.88;51.79;100544.14;1728540;82;25868;-59
2022/05/23 05:03:07;;;;;;;6.22;2.27;;;;;;;14.94;51.86;100541.57;1723768;82;27618;-59
2022/05/23 05:05:46;;;;;;;4.58;2.10;;;;;;;15.06;51.62;100546.64;1725415;82;25886;-59
2022/05/23 05:08:14;;;;;;;5.53;2.72;;;;;;;15.11;51.50;100538.84;1732592;82;25794;-59
2022/05/23 05:10:42;;;;;;;5.85;2.98;;;;;;;15.17;51.36;100544.94;1730754;81;25885;-59
2022/05/23 05:13:09;;;;;;;5.90;2.25;;;;;;;15.25;51.23;100541.35;1728097;82;25538;-59
2022/05/23 05:15:37;;;;;;;5.47;3.08;;;;;;;15.33;51.12;100540.84;1731292;81;27477;-59
2022/05/23 05:18:07;;;;;;;8.18;2.35;;;;;;;15.28;50.87;100544.59;1722084;81;25756;-60
2022/05/23 05:20:35;;;;;;;3.55;1.80;;;;;;;15.28;50.94;100550.02;1723919;82;25519;-60
2022/05/23 05:23:20;;;;;;;9.93;2.35;;;;;;;15.38;51.18;100548.94;1674448;81;25877;-60
2022/05/23 05:25:53;;;;;;;6.97;2.07;;;;;;;15.49;50.91;100551.30;1698172;82;25538;-60
2022/05/23 05:28:22;;;;;;;4.20;1.77;;;;;;;15.60;50.80;100550.06;1696155;84;28294;-60
2022/05/23 05:31:10;;;;;;;3.47;1.52;;;;;;;15.72;50.34;100539.70;1700668;83;26160;-60
2022/05/23 05:33:41;;;;;;;6.78;1.65;;;;;;;15.78;50.16;100551.20;1732277;82;25814;-59
2022/05/23 05:36:13;;;;;;;6.25;1.75;;;;;;;15.88;50.24;100541.02;1724807;82;25749;-59
2022/05/23 05:38:51;;;;;;;9.63;1.87;;;;;;;15.99;50.01;100539.77;1720317;83;25772;-60
2022/05/23 05:41:27;;;;;;;4.05;1.40;;;;;;;16.13;49.84;100544.95;1728282;83;27518;-60
2022/05/23 05:44:01;;;;;;;6.25;1.77;;;;;;;16.24;49.43;100545.05;1702773;83;25795;-60
2022/05/23 05:46:49;;;;;;;8.78;1.77;;;;;;;16.29;49.26;100545.37;1709420;82;25725;-60
2022/05/23 05:49:28;;;;;;;2.25;1.17;;;;;;;16.36;48.52;100549.05;1730293;82;26457;-59
2022/05/23 05:52:01;;;;;;;4.65;1.12;;;;;;;16.42;48.52;100550.20;1728970;82;25746;-59
2022/05/23 05:54:35;;;;;;;4.62;1.12;;;;;;;16.43;48.09;100548.66;1727746;82;27487;-58
2022/05/23 05:57:13;;;;;;;7.05;1.40;;;;;;;16.43;47.58;100544.59;1732119;82;25753;-60
2022/05/23 05:59:40;;;;;;;4.95;1.20;;;;;;;16.39;47.86;100543.77;1703625;82;25742;-60
2022/05/23 06:02:09;;;;;;;5.00;1.45;;;;;;;16.38;47.67;100542.08;1724784;82;25623;-60
2022/05/23 06:04:38;;;;;;;2.55;1.25;;;;;;;16.34;47.79;100543.48;1722921;82;25817;-60
2022/05/23 06:12:39;;;;;;;3.08;1.20;;;;;;;16.77;47.67;100538.39;1726536;82;26328;-59
2022/05/23 06:15:26;;;;;;;7.95;1.35;;;;;;;16.87;47.22;100537.63;1722164;82;25825;-59
2022/05/23 06:17:53;;;;;;;11.25;1.32;;;;;;;16.92;46.56;100534.86;1729438;82;25723;-59
2022/05/23 06:20:23;;;;;;;2.98;1.20;;;;;;;16.92;46.54;100537.58;1729648;82;27334;-59
2022/05/23 06:22:51;;;;;;;4.37;1.40;;;;;;;16.90;46.51;100520.94;1729469;82;25533;-59
2022/05/23 06:25:19;;;;;;;3.08;1.55;;;;;;;16.92;46.57;100520.78;1691605;82;25764;-59
2022/05/23 06:27:46;;;;;;;1.57;1.10;;;;;;;16.97;46.86;100521.09;1728739;82;25906;-59
2022/05/23 06:30:17;;;;;;;5.47;1.30;;;;;;;16.78;46.82;100518.86;1732447;82;25903;-59
2022/05/23 06:32:49;;;;;;;3.95;1.60;;;;;;;16.81;47.27;100519.33;1729045;81;27700;-59
2022/05/23 06:35:21;;;;;;;3.50;1.30;;;;;;;16.58;45.92;100515.31;1722783;81;25747;-59
2022/05/23 06:37:50;;;;;;;13.03;1.57;;;;;;;16.31;46.73;100510.76;1725809;81;25810;-59
2022/05/23 06:40:34;;;;;;;2.67;1.72;;;;;;;16.32;46.91;100509.70;1716863;82;25958;-59
2022/05/23 06:43:05;;;;;;;4.90;1.40;;;;;;;16.43;46.72;100511.17;1725215;82;25762;-59
2022/05/23 06:45:36;;;;;;;3.33;1.60;;;;;;;16.50;46.74;100508.56;1660519;82;28378;-59
2022/05/23 06:48:07;;;;;;;1.67;1.47;;;;;;;16.64;46.36;100498.77;1725674;81;25995;-59
2022/05/23 06:50:51;;;;;;;2.40;1.20;;;;;;;16.80;45.98;100497.30;1728920;82;25902;-59
2022/05/23 06:53:25;;;;;;;26.82;1.90;;;;;;;17.03;45.68;100504.56;1729298;82;25787;-59
2022/05/23 06:56:00;;;;;;;2.58;1.05;;;;;;;17.24;45.07;100497.56;1720308;82;25849;-59
2022/05/23 06:58:27;;;;;;;8.25;1.98;;;;;;;17.33;44.82;100509.50;1728161;82;27500;-59
2022/05/23 07:00:54;;;;;;;11.57;1.92;;;;;;;17.38;44.45;100516.27;1728206;83;25536;-60
2022/05/23 07:03:24;;;;;;;11.43;1.67;;;;;;;17.45;44.02;100513.12;1715386;83;25839;-60
2022/05/23 07:14:25;;;;;;;16.15;3.00;;;;;;;17.29;44.19;100522.30;1731316;82;26189;-59
2022/05/23 07:16:55;;;;;;;7.03;1.40;;;;;;;17.36;44.34;100520.52;1732367;82;25838;-58
2022/05/23 07:19:27;;;;;;;6.78;1.60;;;;;;;17.27;44.58;100519.78;1707422;82;25855;-60
2022/05/23 07:21:59;;;;;;;2.85;1.30;;;;;;;17.31;44.25;100525.16;1729753;82;25641;-60
2022/05/23 07:24:26;;;;;;;10.82;1.70;;;;;;;17.26;44.13;100528.96;1732618;82;27483;-60
2022/05/23 07:26:56;;;;;;;4.65;1.40;;;;;;;17.34;43.86;100530.77;1730156;81;25778;-60
2022/05/23 07:29:26;;;;;;;18.12;2.40;;;;;;;17.12;43.67;100531.98;1728108;82;25607;-59
2022/05/23 07:31:54;;;;;;;2.37;1.32;;;;;;;17.16;44.16;100522.45;1701085;82;25840;-59
2022/05/23 07:34:22;;;;;;;2.90;1.25;;;;;;;17.19;43.79;100527.50;1698997;82;25517;-59
2022/05/23 07:36:50;;;;;;;13.65;2.05;;;;;;;17.04;43.92;100532.08;1730116;82;27470;-59
2022/05/23 07:39:17;;;;;;;3.42;1.70;;;;;;;16.98;44.39;100534.18;1730765;82;25782;-59
2022/05/23 07:41:52;;;;;;;5.97;1.57;;;;;;;16.84;44.60;100548.86;1730243;82;25828;-59
2022/05/23 07:44:21;;;;;;;8.30;1.60;;;;;;;16.77;44.82;100537.53;1729379;82;25843;-60
2022/05/23 07:46:49;;;;;;;7.78;1.67;;;;;;;16.52;45.02;100539.95;1725156;81;25926;-59
2022/05/23 07:49:17;;;;;;;7.17;1.60;;;;;;;16.46;45.40;100543.38;1728511;81;27539;-59
2022/05/23 07:51:46;;;;;;;7.00;1.85;;;;;;;16.45;45.42;100544.39;1729206;82;25942;-60
2022/05/23 08:02:47;;;;;;;37.48;3.80;;;;;;;16.63;44.88;100546.83;1727564;82;28408;-59
2022/05/23 08:05:19;;;;;;;3.72;1.40;;;;;;;16.69;45.00;100543.38;1719497;83;26035;-59
2022/05/23 08:07:48;;;;;;;5.33;1.60;;;;;;;16.72;44.87;100547.09;1729607;82;25674;-59
2022/05/23 08:10:16;;;;;;;7.05;1.80;;;;;;;16.80;44.70;100544.84;1729534;82;25725;-59
2022/05/23 08:12:52;;;;;;;6.47;1.57;;;;;;;16.87;44.92;100557.14;1730592;82;25763;-59
2022/05/23 08:15:22;;;;;;;3.12;1.40;;;;;;;17.00;44.49;100559.27;1732268;82;28208;-59
2022/05/23 08:17:51;;;;;;;7.17;1.55;;;;;;;17.08;44.39;100555.12;1722980;82;25942;-59
2022/05/23 08:20:22;;;;;;;15.35;1.92;;;;;;;17.31;44.26;100546.08;1727771;81;25958;-59
2022/05/23 08:22:54;;;;;;;4.90;1.72;;;;;;;17.55;43.27;100554.48;1730258;82;25721;-59
2022/05/23 08:25:20;;;;;;;6.58;1.90;;;;;;;17.68;42.93;100557.38;1730602;81;25981;-59
2022/05/23 08:27:53;;;;;;;16.77;2.62;;;;;;;17.88;42.89;100546.44;1730509;82;27477;-59
2022/05/23 08:30:20;;;;;;;10.10;1.60;;;;;;;18.24;42.64;100548.37;1725882;82;25786;-59
2022/05/23 08:32:50;;;;;;;19.12;2.60;;;;;;;18.28;41.04;100545.56;1713996;82;25838;-59
2022/05/23 08:35:21;;;;;;;5.58;1.92;;;;;;;18.30;41.66;100536.16;1714582;82;25734;-59
2022/05/23 08:37:49;;;;;;;5.85;1.85;;;;;;;18.19;41.85;100553.53;1753467;81;25802;-59
2022/05/23 08:40:18;;;;;;;2.65;1.72;;;;;;;18.14;41.93;100563.63;1733839;81;27520;-59
2022/05/23 08:42:56;;;;;;;2.80;1.40;;;;;;;17.92;42.41;100558.12;1710001;81;25804;-59
2022/05/23 08:45:35;;;;;;;3.83;1.85;;;;;;;17.95;42.73;100556.36;1716399;81;25804;-59
2022/05/23 08:48:32;;;;;;;5.92;2.10;;;;;;;17.94;43.04;100557.92;1737866;80;25925;-59
2022/05/23 08:51:19;;;;;;;13.98;2.22;;;;;;;17.92;43.00;100552.67;1746401;81;25774;-60
2022/05/23 08:54:23;;;;;;;9.23;2.47;;;;;;;18.13;42.95;100552.41;1697669;82;27536;-60
2022/05/23 08:56:57;;;;;;;4.22;2.10;;;;;;;18.15;42.51;100549.81;1733945;81;26078;-59
2022/05/23 08:59:31;;;;;;;5.35;2.00;;;;;;;18.16;42.87;100553.41;1734723;81;25789;-59
2022/05/23 09:02:06;;;;;;;28.47;3.10;;;;;;;18.27;42.57;100552.91;1728848;82;25793;-59
2022/05/23 09:04:55;;;;;;;6.50;2.55;;;;;;;18.31;42.60;100553.36;1730843;82;25721;-59
2022/05/23 09:07:47;;;;;;;17.57;2.75;;;;;;;18.39;42.14;100558.69;1716526;82;27327;-59
2022/05/23 09:10:18;;;;;;;6.25;3.30;;;;;;;18.41;41.75;100554.40;1735337;82;26067;-59
2022/05/23 09:12:45;;;;;;;23.02;3.80;;;;;;;18.41;41.85;100555.76;1729427;82;26409;-60
2022/05/23 09:15:12;;;;;;;6.83;2.20;;;;;;;18.43;41.74;100550.97;1732193;82;25793;-60
2022/05/23 09:17:44;;;;;;;11.28;2.50;;;;;;;18.32;41.54;100561.86;1731944;81;25804;-60
2022/05/23 09:20:18;;;;;;;10.25;2.08;;;;;;;18.34;41.73;100561.66;1746310;81;27655;-60
2022/05/23 09:22:55;;;;;;;2.52;1.80;;;;;;;18.41;41.71;100562.06;1727910;81;25771;-60
2022/05/23 09:25:25;;;;;;;6.87;1.82;;;;;;;18.43;41.67;100559.14;1729101;82;25845;-60
2022/05/23 09:28:09;;;;;;;5.15;1.70;;;;;;;18.53;41.38;100561.53;1725432;82;25750;-59
2022/05/23 09:30:40;;;;;;;4.65;1.70;;;;;;;18.58;41.66;100561.81;1731388;82;25792;-59
2022/05/23 09:33:15;;;;;;;5.58;1.82;;;;;;;18.72;41.39;100564.98;1729756;81;27572;-60
2022/05/23 09:35:52;;;;;;;5.10;1.12;;;;;;;18.80;41.06;100565.38;1730285;82;25846;-59
2022/05/23 09:38:29;;;;;;;4.78;1.62;;;;;;;18.75;40.44;100572.77;1728977;82;25699;-59
2022/05/23 09:41:00;;;;;;;2.70;1.20;;;;;;;18.70;40.19;100570.30;1702463;82;26541;-59
2022/05/23 09:49:21;;;;;;;3.33;1.47;;;;;;;18.55;41.04;100579.89;1727326;81;25835;-59
2022/05/23 09:52:15;;;;;;;9.53;1.75;;;;;;;18.43;41.36;100577.67;1731543;82;25794;-59
2022/05/23 09:54:52;;;;;;;8.65;1.90;;;;;;;18.40;41.57;100586.25;1706838;82;25828;-60
2022/05/23 09:57:32;;;;;;;13.65;2.08;;;;;;;18.35;42.00;100576.44;1732513;81;25822;-60
2022/05/23 10:00:10;;;;;;;4.83;1.62;;;;;;;18.29;42.22;100581.30;1732356;82;27498;-60
2022/05/23 10:03:00;;;;;;;15.93;2.92;;;;;;;18.25;42.67;100579.98;1731309;82;25781;-59
2022/05/23 10:05:46;;;;;;;3.27;1.35;;;;;;;18.32;42.61;100582.28;1728519;81;25920;-59
2022/05/23 10:08:32;;;;;;;8.15;1.82;;;;;;;18.18;42.03;100584.50;1732036;82;25820;-59
2022/05/23 10:11:22;;;;;;;6.65;1.77;;;;;;;17.99;42.72;100579.48;1731470;82;26080;-59
2022/05/23 10:13:54;;;;;;;13.05;2.22;;;;;;;18.11;42.78;100579.84;1732484;82;27502;-59
2022/05/23 10:16:30;;;;;;;4.25;1.85;;;;;;;18.40;42.49;100579.44;1732400;82;26318;-59
2022/05/23 10:19:07;;;;;;;17.77;3.00;;;;;;;18.53;42.24;100570.56;1732570;82;26128;-59
2022/05/23 10:21:43;;;;;;;13.85;2.10;;;;;;;18.52;42.36;100574.83;1699571;82;25780;-59
2022/05/23 10:24:24;;;;;;;12.13;2.22;;;;;;;18.65;42.39;100578.23;1699373;84;26152;-60
2022/05/23 10:26:59;;;;;;;3.87;2.00;;;;;;;18.78;42.13;100576.45;1730483;82;27592;-60
2022/05/23 10:29:55;;;;;;;9.68;2.27;;;;;;;18.88;42.09;100572.55;1732061;82;25764;-60
2022/05/23 10:32:48;;;;;;;8.13;1.40;;;;;;;18.92;41.83;100572.50;1740748;81;26016;-59
2022/05/23 10:35:44;;;;;;;10.75;1.67;;;;;;;19.00;41.45;100575.65;1741226;81;25548;-59
2022/05/23 10:44:43;;;;;;;15.08;3.12;;;;;;;18.85;41.09;100566.15;1734553;81;26185;-59
2022/05/23 10:47:34;;;;;;;17.30;8.60;;;;;;;19.15;41.34;100565.98;1722693;82;26370;-59
2022/05/23 10:50:13;;;;;;;6.60;2.22;;;;;;;19.13;40.71;100566.73;1732133;81;25834;-59
2022/05/23 10:52:47;;;;;;;6.92;1.77;;;;;;;18.61;40.76;100579.11;1740220;81;25472;-59
2022/05/23 10:55:36;;;;;;;12.53;1.90;;;;;;;18.41;41.74;100564.79;1750746;81;28560;-60
2022/05/23 10:58:32;;;;;;;6.25;1.90;;;;;;;18.39;41.83;100564.63;1725920;82;25867;-59
2022/05/23 11:01:23;;;;;;;12.75;1.62;;;;;;;18.52;41.58;100571.59;1731096;82;25818;-58
2022/05/23 11:04:23;;;;;;;5.97;1.60;;;;;;;18.71;41.55;100572.00;1729490;82;26618;-59
2022/05/23 11:07:18;;;;;;;14.13;2.65;;;;;;;19.00;40.77;100569.66;1728606;82;52891;-59
2022/05/23 11:10:14;;;;;;;13.05;4.08;;;;;;;19.46;40.01;100564.75;1726236;82;28576;-59
2022/05/23 11:13:23;;;;;;;12.10;2.22;;;;;;;20.09;39.12;100557.84;1730428;82;25747;-59
2022/05/23 11:16:17;;;;;;;5.15;1.42;;;;;;;20.31;39.07;100575.47;1729908;81;25727;-60
2022/05/23 11:19:18;;;;;;;9.55;2.15;;;;;;;20.45;38.45;100573.61;1723926;82;25750;-60
2022/05/23 11:21:56;;;;;;;9.13;1.50;;;;;;;20.60;38.13;100561.97;1722859;82;25825;-60
2022/05/23 11:24:28;;;;;;;5.40;1.52;;;;;;;20.66;38.38;100563.58;1721556;82;27440;-60
2022/05/23 11:33:41;;;;;;;1.67;1.32;;;;;;;20.97;36.81;100559.40;1731277;82;25773;-60
2022/05/23 11:35:11;;;;;;;2.75;1.10;;;;;;;21.69;36.25;100564.50;1734313;82;25754;-59
2022/05/23 11:37:52;;;;;;;2.90;1.00;;;;;;;21.83;35.53;100572.66;1731627;82;27584;-60
2022/05/23 11:40:32;;;;;;;3.33;0.90;;;;;;;21.91;36.17;100562.83;1729186;82;25738;-60
2022/05/23 11:43:05;;;;;;;4.60;1.10;;;;;;;22.09;35.23;100560.77;1727705;81;25708;-60
2022/05/23 11:48:43;;;;;;;7.42;1.20;;;;;;;21.98;35.45;100561.45;1731520;81;26239;-59
2022/05/23 11:51:36;;;;;;;6.53;1.10;;;;;;;21.95;35.61;100574.19;1757484;81;27446;-59
2022/05/23 11:54:13;;;;;;;10.70;1.25;;;;;;;21.34;36.03;100577.05;1738955;81;25719;-59
2022/05/23 11:56:51;;;;;;;3.77;0.70;;;;;;;21.32;37.02;100570.97;1734915;81;25656;-59
2022/05/23 11:59:29;;;;;;;1.52;0.50;;;;;;;21.42;36.71;100570.01;1734788;82;25727;-59
2022/05/23 12:02:14;;;;;;;3.72;0.70;;;;;;;21.39;36.04;100580.51;1735065;82;26128;-59
2022/05/23 12:04:55;;;;;;;1.57;0.70;;;;;;;21.00;36.60;100580.33;1738111;81;29537;-59
2022/05/23 12:07:45;;;;;;;2.35;0.80;;;;;;;21.02;37.08;100563.73;1724391;81;26142;-59
2022/05/23 12:10:29;;;;;;;8.30;1.62;;;;;;;21.48;37.19;100565.55;1707425;82;26155;-59
2022/05/23 12:13:18;;;;;;;6.20;1.65;;;;;;;21.58;36.86;100563.25;1727474;82;25737;-57
2022/05/23 12:15:52;;;;;;;3.27;1.20;;;;;;;21.71;36.01;100571.12;1720559;82;25757;-57
2022/05/23 12:18:28;;;;;;;4.20;1.10;;;;;;;21.73;36.50;100562.17;1735043;82;28237;-58
2022/05/23 12:21:03;;;;;;;4.53;1.20;;;;;;;22.25;35.85;100562.69;1735596;82;25802;-60
2022/05/23 12:23:42;;;;;;;5.58;0.90;;;;;;;22.73;34.96;100553.95;1736486;81;25861;-60
2022/05/23 12:26:29;;;;;;;6.58;1.10;;;;;;;22.81;34.69;100549.59;1735732;82;26734;-59
2022/05/23 12:28:59;;;;;;;4.12;0.70;;;;;;;22.78;34.78;100549.18;1734604;82;25718;-60
2022/05/23 12:31:30;;;;;;;4.05;1.20;;;;;;;22.23;35.00;100553.33;1736280;82;27576;-60
2022/05/23 12:34:08;;;;;;;4.45;1.32;;;;;;;21.88;35.88;100555.90;1735634;81;25964;-60
2022/05/23 12:36:40;;;;;;;9.28;1.32;;;;;;;21.64;36.21;100551.14;1725459;82;26302;-59
2022/05/23 12:39:35;;;;;;;10.88;1.10;;;;;;;21.48;36.18;100556.52;1724851;81;25792;-59
2022/05/23 12:42:13;;;;;;;4.80;1.00;;;;;;;21.26;36.75;100550.77;1725158;82;25809;-59
2022/05/23 12:45:12;;;;;;;8.45;2.22;;;;;;;21.14;36.80;100550.26;1736467;82;27757;-60
2022/05/23 12:48:28;;;;;;;2.00;0.85;;;;;;;21.01;37.32;100547.83;1725629;82;25822;-60
2022/05/23 12:55:10;;;;;;;5.45;0.88;;;;;;;20.75;37.86;100552.78;1725015;81;25772;-59
2022/05/23 12:58:01;;;;;;;4.35;0.78;;;;;;;20.92;37.58;100544.48;1725104;82;25809;-59
2022/05/23 13:00:55;;;;;;;14.03;1.72;;;;;;;21.06;37.24;100546.69;1706636;81;27667;-59
2022/05/23 13:03:54;;;;;;;0.80;0.68;;;;;;;22.10;36.37;100539.69;1748766;81;25831;-58